createdAt,value
2023-05-24T00:01:51.705Z,11.20
2023-05-24T00:04:19.980Z,11.20
2023-05-24T00:06:48.518Z,11.20
2023-05-24T00:09:15.404Z,11.30
2023-05-24T00:11:42.441Z,11.30
2023-05-24T00:14:09.308Z,11.30
2023-05-24T00:16:36.907Z,11.30
2023-05-24T00:19:03.877Z,11.30
2023-05-24T00:21:32.140Z,11.30
2023-05-24T00:23:58.988Z,11.30
2023-05-24T00:26:26.152Z,11.30
2023-05-24T00:28:55.962Z,11.30
2023-05-24T00:31:22.841Z,11.30
2023-05-24T00:33:50.203Z,11.20
2023-05-24T00:36:18.792Z,11.20
2023-05-24T00:38:48.143Z,11.20
2023-05-24T00:41:16.843Z,11.20
2023-05-24T00:43:44.415Z,11.20
2023-05-24T00:46:18.909Z,11.10
2023-05-24T00:48:46.442Z,11.10
2023-05-24T00:51:14.834Z,11.10
2023-05-24T00:53:43.763Z,11.10
2023-05-24T00:56:13.476Z,11.10
2023-05-24T00:58:40.557Z,11.10
2023-05-24T01:01:08.474Z,11.10
2023-05-24T01:04:47.758Z,11.10
2023-05-24T01:07:53.361Z,11.10
2023-05-24T01:10:35.089Z,11.10
2023-05-24T01:13:29.582Z,11.10
2023-05-24T01:16:11.318Z,11.10
2023-05-24T01:18:44.099Z,11.00
2023-05-24T01:21:30.265Z,11.00
2023-05-24T01:24:39.983Z,11.00
2023-05-24T01:27:14.765Z,10.90
2023-05-24T01:29:42.597Z,10.80
2023-05-24T01:32:10.268Z,10.80
2023-05-24T01:34:37.053Z,10.80
2023-05-24T01:37:03.871Z,10.80
2023-05-24T01:39:32.174Z,10.80
2023-05-24T01:42:24.924Z,10.80
2023-05-24T01:45:05.830Z,10.70
2023-05-24T01:48:14.371Z,10.70
2023-05-24T01:50:48.874Z,10.70
2023-05-24T01:53:19.606Z,10.70
2023-05-24T01:55:51.502Z,10.60
2023-05-24T01:58:21.047Z,10.60
2023-05-24T02:00:48.803Z,10.60
2023-05-24T02:03:16.819Z,10.60
2023-05-24T02:05:45.356Z,10.50
2023-05-24T02:08:12.924Z,10.50
2023-05-24T02:10:40.748Z,10.50
2023-05-24T02:13:08.271Z,10.50
2023-05-24T02:15:38.622Z,10.50
2023-05-24T02:18:08.105Z,10.40
2023-05-24T02:20:37.088Z,10.40
2023-05-24T02:23:04.534Z,10.40
2023-05-24T02:25:32.083Z,10.40
2023-05-24T02:28:02.375Z,10.40
2023-05-24T02:30:29.260Z,10.30
2023-05-24T02:32:56.246Z,10.20
2023-05-24T02:35:23.221Z,10.20
2023-05-24T02:37:50.510Z,10.20
2023-05-24T02:40:17.531Z,10.10
2023-05-24T02:42:44.373Z,10.20
2023-05-24T02:45:11.499Z,10.20
2023-05-24T02:47:38.429Z,10.20
2023-05-24T02:50:06.242Z,10.20
2023-05-24T02:52:33.224Z,10.20
2023-05-24T02:55:00.134Z,10.10
2023-05-24T02:57:28.814Z,10.10
2023-05-24T02:59:56.140Z,10.20
2023-05-24T03:02:23.289Z,10.20
2023-05-24T03:04:50.410Z,10.20
2023-05-24T03:07:17.427Z,10.10
2023-05-24T03:09:44.350Z,10.10
2023-05-24T03:12:11.469Z,10.10
2023-05-24T03:14:38.370Z,10.20
2023-05-24T03:17:05.766Z,10.20
2023-05-24T03:19:34.208Z,10.10
2023-05-24T03:22:01.107Z,10.10
2023-05-24T03:24:27.933Z,10.10
2023-05-24T03:26:54.822Z,10.00
2023-05-24T03:29:22.078Z,9.90
2023-05-24T03:31:50.228Z,9.90
2023-05-24T03:34:17.220Z,9.90
2023-05-24T03:36:44.354Z,9.90
2023-05-24T03:39:11.499Z,9.90
2023-05-24T03:42:07.522Z,9.80
2023-05-24T03:44:35.006Z,9.80
2023-05-24T03:47:01.964Z,9.80
2023-05-24T03:49:29.950Z,9.80
2023-05-24T03:51:56.794Z,9.80
2023-05-24T03:54:23.868Z,9.80
2023-05-24T03:56:53.201Z,9.80
2023-05-24T03:59:21.808Z,9.80
2023-05-24T04:01:48.761Z,9.70
2023-05-24T04:04:15.786Z,9.70
2023-05-24T04:06:43.053Z,9.70
2023-05-24T04:09:10.178Z,9.60
2023-05-24T04:11:37.180Z,9.60
2023-05-24T04:14:04.180Z,9.60
2023-05-24T04:16:34.303Z,9.60
2023-05-24T04:19:04.670Z,9.60
2023-05-24T04:21:33.628Z,9.70
2023-05-24T04:24:01.682Z,9.70
2023-05-24T04:26:29.826Z,9.60
2023-05-24T04:28:57.403Z,9.60
2023-05-24T04:31:24.333Z,9.60
2023-05-24T04:33:51.171Z,9.60
2023-05-24T04:36:18.187Z,9.50
2023-05-24T04:38:46.331Z,9.50
2023-05-24T04:41:13.575Z,9.60
2023-05-24T04:43:40.729Z,9.60
2023-05-24T04:46:09.136Z,9.60
2023-05-24T04:48:36.682Z,9.60
2023-05-24T04:51:03.607Z,9.60
2023-05-24T04:53:30.560Z,9.60
2023-05-24T04:55:57.415Z,9.70
2023-05-24T04:58:24.269Z,9.70
2023-05-24T05:00:51.280Z,9.70
2023-05-24T05:03:18.412Z,9.80
2023-05-24T05:05:46.541Z,9.80
2023-05-24T05:08:14.120Z,9.80
2023-05-24T05:10:41.227Z,10.00
2023-05-24T05:13:08.263Z,10.00
2023-05-24T05:15:35.096Z,10.10
2023-05-24T05:18:01.979Z,10.10
2023-05-24T05:20:29.004Z,10.10
2023-05-24T05:22:55.863Z,10.10
2023-05-24T05:25:22.755Z,10.00
2023-05-24T05:27:49.625Z,10.00
2023-05-24T05:30:16.781Z,10.00
2023-05-24T05:32:43.753Z,9.90
2023-05-24T05:35:10.783Z,9.90
2023-05-24T05:37:37.656Z,9.80
2023-05-24T05:40:04.789Z,9.80
2023-05-24T05:42:31.700Z,9.80
2023-05-24T05:44:58.661Z,9.70
2023-05-24T05:47:25.573Z,9.60
2023-05-24T05:49:52.442Z,9.60
2023-05-24T05:52:19.309Z,9.60
2023-05-24T05:54:46.146Z,9.80
2023-05-24T05:57:13.058Z,9.80
2023-05-24T05:59:39.928Z,9.90
2023-05-24T06:02:07.290Z,10.10
2023-05-24T06:04:34.712Z,10.10
2023-05-24T06:07:01.753Z,10.20
2023-05-24T06:09:28.840Z,10.20
2023-05-24T06:11:55.872Z,10.30
2023-05-24T06:14:25.141Z,10.30
2023-05-24T06:16:54.562Z,10.20
2023-05-24T06:19:21.863Z,10.30
2023-05-24T06:21:50.543Z,10.30
2023-05-24T06:24:21.622Z,10.20
2023-05-24T06:26:50.597Z,10.20
2023-05-24T06:29:20.557Z,10.30
2023-05-24T06:31:50.990Z,10.20
2023-05-24T06:34:21.333Z,10.20
2023-05-24T06:36:51.531Z,10.20
2023-05-24T06:39:19.014Z,10.20
2023-05-24T06:41:47.288Z,10.20
2023-05-24T06:44:14.482Z,10.30
2023-05-24T06:46:41.454Z,10.40
2023-05-24T06:49:08.788Z,10.50
2023-05-24T06:51:36.631Z,10.60
2023-05-24T06:54:04.158Z,10.60
2023-05-24T06:56:30.972Z,10.60
2023-05-24T06:58:58.469Z,10.50
2023-05-24T07:01:25.394Z,10.50
2023-05-24T07:03:52.733Z,10.50
2023-05-24T07:06:19.708Z,10.50
2023-05-24T07:08:46.637Z,10.70
2023-05-24T07:11:13.516Z,10.60
2023-05-24T07:13:40.333Z,10.60
2023-05-24T07:16:07.393Z,10.60
2023-05-24T07:18:34.297Z,10.70
2023-05-24T07:21:01.341Z,10.80
2023-05-24T07:23:28.309Z,10.90
2023-05-24T07:25:55.238Z,11.00
2023-05-24T07:28:22.107Z,11.20
2023-05-24T07:30:49.374Z,11.40
2023-05-24T07:33:16.750Z,11.40
2023-05-24T07:35:45.841Z,11.30
2023-05-24T07:38:12.921Z,11.30
2023-05-24T07:40:39.792Z,11.40
2023-05-24T07:43:06.778Z,11.70
2023-05-24T07:45:33.908Z,11.80
2023-05-24T07:48:01.636Z,11.90
2023-05-24T07:50:29.399Z,11.90
2023-05-24T07:52:59.277Z,12.00
2023-05-24T07:55:28.021Z,12.00
2023-05-24T07:57:55.112Z,12.10
2023-05-24T08:00:23.131Z,12.00
2023-05-24T08:02:50.301Z,12.00
2023-05-24T08:05:17.855Z,12.10
2023-05-24T08:07:45.701Z,12.10
2023-05-24T08:10:13.669Z,12.00
2023-05-24T08:12:41.235Z,11.90
2023-05-24T08:15:08.599Z,11.80
2023-05-24T08:17:35.706Z,12.00
2023-05-24T08:20:06.670Z,12.20
2023-05-24T08:22:33.876Z,12.30
2023-05-24T08:25:00.849Z,12.10
2023-05-24T08:27:31.330Z,12.10
2023-05-24T08:29:58.685Z,12.10
2023-05-24T08:32:25.852Z,11.90
2023-05-24T08:35:00.444Z,11.80
2023-05-24T08:37:39.617Z,11.80
2023-05-24T08:40:09.897Z,12.00
2023-05-24T08:42:38.648Z,12.10
2023-05-24T08:45:10.913Z,12.10
2023-05-24T08:47:38.791Z,11.90
2023-05-24T08:50:07.474Z,11.90
2023-05-24T08:52:34.881Z,12.00
2023-05-24T08:55:04.872Z,12.00
2023-05-24T08:57:32.606Z,12.00
2023-05-24T08:59:59.476Z,11.90
2023-05-24T09:02:27.105Z,11.90
2023-05-24T09:04:55.227Z,11.90
2023-05-24T09:07:24.273Z,11.80
2023-05-24T09:09:59.342Z,11.50
2023-05-24T09:12:37.230Z,11.60
2023-05-24T09:15:07.298Z,11.40
2023-05-24T09:17:38.052Z,11.20
2023-05-24T09:20:11.539Z,11.30
2023-05-24T09:22:42.851Z,11.30
2023-05-24T09:25:13.003Z,11.40
2023-05-24T09:27:40.184Z,11.30
2023-05-24T09:30:12.957Z,11.30
2023-05-24T09:32:40.318Z,11.10
2023-05-24T09:35:09.630Z,11.10
2023-05-24T09:37:38.658Z,11.10
2023-05-24T09:40:09.870Z,11.10
2023-05-24T09:42:38.161Z,11.10
2023-05-24T09:45:09.783Z,11.10
2023-05-24T09:47:38.252Z,11.00
2023-05-24T09:50:07.474Z,10.80
2023-05-24T09:52:38.784Z,10.90
2023-05-24T09:55:15.666Z,11.20
2023-05-24T09:57:53.425Z,11.50
2023-05-24T10:00:25.166Z,12.00
2023-05-24T10:03:08.833Z,12.40
2023-05-24T10:05:37.073Z,13.20
2023-05-24T10:08:07.028Z,13.40
2023-05-24T10:10:34.340Z,13.30
2023-05-24T10:13:02.550Z,13.40
2023-05-24T10:15:30.831Z,13.20
2023-05-24T10:17:58.737Z,13.00
2023-05-24T10:20:26.893Z,12.90
2023-05-24T10:23:00.326Z,12.70
2023-05-24T10:25:29.372Z,12.70
2023-05-24T10:28:03.487Z,13.00
2023-05-24T10:30:40.352Z,13.00
2023-05-24T10:33:08.668Z,12.80
2023-05-24T10:35:38.264Z,12.60
2023-05-24T10:38:09.147Z,12.50
2023-05-24T10:40:43.826Z,12.40
2023-05-24T10:43:11.195Z,12.10
2023-05-24T10:45:39.982Z,12.00
2023-05-24T10:48:29.582Z,12.00
2023-05-24T10:50:56.656Z,12.20
2023-05-24T10:53:26.469Z,12.30
2023-05-24T10:55:56.414Z,12.40
2023-05-24T10:58:30.661Z,12.30
2023-05-24T11:00:57.928Z,12.20
2023-05-24T11:03:25.436Z,12.40
2023-05-24T11:05:54.938Z,12.70
2023-05-24T11:08:36.050Z,12.80
2023-05-24T11:11:24.551Z,12.90
2023-05-24T11:13:59.518Z,13.00
2023-05-24T11:16:35.264Z,13.10
2023-05-24T11:19:19.194Z,13.20
2023-05-24T11:21:50.623Z,13.20
2023-05-24T11:24:22.132Z,13.20
2023-05-24T11:26:50.653Z,13.20
2023-05-24T11:29:19.123Z,13.10
2023-05-24T11:31:54.297Z,12.70
2023-05-24T11:34:21.978Z,12.40
2023-05-24T11:36:49.211Z,12.30
2023-05-24T11:39:16.470Z,12.30
2023-05-24T11:41:43.907Z,12.20
2023-05-24T11:44:12.189Z,12.30
2023-05-24T11:46:40.482Z,12.40
2023-05-24T11:49:07.779Z,12.30
2023-05-24T11:51:35.850Z,12.30
2023-05-24T11:54:02.762Z,12.20
2023-05-24T11:56:33.645Z,12.30
2023-05-24T11:59:16.585Z,12.30
2023-05-24T12:01:44.444Z,12.50
2023-05-24T12:04:12.509Z,12.40
2023-05-24T12:06:44.524Z,12.60
2023-05-24T12:09:16.800Z,12.40
2023-05-24T12:11:46.877Z,12.50
2023-05-24T12:14:18.594Z,12.50
2023-05-24T12:16:47.154Z,12.40
2023-05-24T12:19:32.231Z,12.40
2023-05-24T12:22:05.128Z,12.30
2023-05-24T12:24:32.700Z,12.20
2023-05-24T12:27:02.026Z,12.30
2023-05-24T12:29:41.145Z,12.30
2023-05-24T12:32:13.550Z,12.30
2023-05-24T12:34:42.658Z,12.30
2023-05-24T12:37:10.252Z,12.20
2023-05-24T12:39:37.756Z,12.20
2023-05-24T12:42:05.153Z,12.30
2023-05-24T12:44:36.939Z,12.40
2023-05-24T12:47:08.423Z,12.70
2023-05-24T12:49:36.026Z,12.60
2023-05-24T12:52:02.924Z,13.10
2023-05-24T12:54:30.357Z,13.30
2023-05-24T12:56:59.913Z,13.50
2023-05-24T12:59:28.748Z,13.50
2023-05-24T13:01:56.649Z,13.50
2023-05-24T13:04:26.227Z,13.40
2023-05-24T13:06:54.188Z,13.30
2023-05-24T13:09:25.480Z,13.50
2023-05-24T13:11:52.706Z,13.40
2023-05-24T13:14:20.040Z,13.60
2023-05-24T13:16:47.727Z,13.70
2023-05-24T13:19:14.750Z,13.80
2023-05-24T13:21:41.754Z,13.90
2023-05-24T13:24:08.849Z,14.00
2023-05-24T13:26:39.135Z,13.90
2023-05-24T13:31:38.129Z,14.40
2023-05-24T13:34:05.633Z,13.90
2023-05-24T13:36:33.115Z,13.60
2023-05-24T13:41:31.679Z,13.60
2023-05-24T13:43:58.562Z,13.50
2023-05-24T13:46:25.874Z,13.70
2023-05-24T13:48:52.719Z,13.90
2023-05-24T13:51:19.945Z,13.80
2023-05-24T13:53:48.007Z,13.50
2023-05-24T13:56:16.339Z,13.40
2023-05-24T13:58:43.468Z,13.50
2023-05-24T14:01:11.146Z,13.90
2023-05-24T14:03:40.298Z,13.90
2023-05-24T14:06:10.286Z,13.80
2023-05-24T14:08:37.320Z,14.40
2023-05-24T14:11:04.242Z,14.90
2023-05-24T14:14:23.395Z,14.80
2023-05-24T14:16:18.566Z,15.20
2023-05-24T14:18:45.961Z,14.40
2023-05-24T14:21:12.901Z,13.90
2023-05-24T14:23:39.740Z,14.50
2023-05-24T14:26:06.823Z,14.90
2023-05-24T14:28:33.725Z,15.10
2023-05-24T14:31:00.598Z,15.00
2023-05-24T14:33:27.954Z,15.70
2023-05-24T14:35:54.970Z,16.00
2023-05-24T14:38:23.886Z,15.90
2023-05-24T14:40:51.326Z,15.90
2023-05-24T14:43:18.296Z,15.60
2023-05-24T14:45:45.308Z,14.90
2023-05-24T14:48:12.971Z,14.50
2023-05-24T14:50:40.752Z,15.00
2023-05-24T14:53:15.071Z,15.30
2023-05-24T14:55:44.049Z,15.70
2023-05-24T14:58:12.019Z,15.30
2023-05-24T15:00:40.223Z,15.10
2023-05-24T15:03:08.356Z,14.80
2023-05-24T15:05:36.304Z,14.30
2023-05-24T15:08:03.649Z,14.50
2023-05-24T15:10:30.581Z,14.60
2023-05-24T15:12:57.633Z,14.80
2023-05-24T15:15:24.523Z,14.60
2023-05-24T15:17:51.480Z,15.10
2023-05-24T15:20:23.807Z,15.30
2023-05-24T15:22:51.106Z,15.60
2023-05-24T15:25:18.017Z,15.40
2023-05-24T15:27:45.225Z,15.30
2023-05-24T15:30:12.247Z,15.40
2023-05-24T15:32:39.184Z,15.40
2023-05-24T15:35:06.879Z,15.40
2023-05-24T15:37:33.987Z,15.20
2023-05-24T15:40:01.211Z,15.10
2023-05-24T15:42:28.549Z,15.10
2023-05-24T15:44:55.381Z,14.80
2023-05-24T15:47:22.637Z,14.90
2023-05-24T15:49:49.978Z,15.10
2023-05-24T15:52:17.237Z,15.00
2023-05-24T15:54:44.381Z,14.80
2023-05-24T15:57:11.591Z,14.60
2023-05-24T15:59:38.772Z,14.60
2023-05-24T16:02:09.281Z,14.50
2023-05-24T16:04:36.365Z,14.30
2023-05-24T16:07:03.275Z,14.20
2023-05-24T16:09:30.154Z,14.10
2023-05-24T16:11:57.132Z,14.10
2023-05-24T16:14:24.106Z,13.60
2023-05-24T16:16:51.048Z,13.50
2023-05-24T16:19:17.992Z,13.50
2023-05-24T16:21:44.855Z,13.60
2023-05-24T16:24:11.663Z,13.60
2023-05-24T16:26:38.476Z,13.60
2023-05-24T16:29:06.985Z,13.60
2023-05-24T16:31:34.284Z,13.40
2023-05-24T16:34:01.274Z,13.40
2023-05-24T16:36:28.353Z,13.30
2023-05-24T16:38:55.175Z,13.40
2023-05-24T16:41:22.076Z,13.40
2023-05-24T16:43:48.866Z,13.30
2023-05-24T16:46:15.931Z,13.20
2023-05-24T16:48:42.897Z,13.10
2023-05-24T16:51:09.767Z,13.10
2023-05-24T16:53:36.829Z,13.20
2023-05-24T16:56:03.961Z,13.20
2023-05-24T16:58:31.094Z,13.00
2023-05-24T17:00:58.556Z,13.00
2023-05-24T17:03:29.784Z,13.00
2023-05-24T17:06:01.947Z,13.00
2023-05-24T17:08:30.061Z,12.90
2023-05-24T17:10:57.126Z,12.80
2023-05-24T17:13:24.220Z,12.70
2023-05-24T17:15:52.189Z,12.70
2023-05-24T17:18:31.777Z,12.70
2023-05-24T17:21:00.684Z,12.60
2023-05-24T17:23:32.457Z,12.50
2023-05-24T17:26:02.833Z,12.50
2023-05-24T17:28:30.181Z,12.40
2023-05-24T17:30:59.414Z,12.40
2023-05-24T17:33:29.077Z,12.50
2023-05-24T17:35:57.001Z,12.50
2023-05-24T17:38:25.045Z,12.40
2023-05-24T17:40:59.538Z,12.40
2023-05-24T17:43:32.651Z,12.30
2023-05-24T17:46:06.587Z,12.30
2023-05-24T17:48:41.933Z,12.30
2023-05-24T17:51:09.616Z,12.30
2023-05-24T17:53:43.062Z,12.20
2023-05-24T17:56:10.020Z,12.10
2023-05-24T17:58:37.544Z,12.00
2023-05-24T18:01:06.037Z,11.90
2023-05-24T18:03:36.515Z,11.90
2023-05-24T18:06:04.544Z,11.80
2023-05-24T18:08:31.946Z,11.80
2023-05-24T18:10:59.014Z,11.70
2023-05-24T18:13:26.833Z,11.70
2023-05-24T18:15:53.824Z,11.60
2023-05-24T18:18:20.823Z,11.60
2023-05-24T18:20:48.172Z,11.60
2023-05-24T18:23:15.056Z,11.50
2023-05-24T18:25:43.725Z,11.40
2023-05-24T18:28:12.206Z,11.40
2023-05-24T18:30:39.385Z,11.30
2023-05-24T18:33:08.477Z,11.20
2023-05-24T18:35:35.765Z,11.20
2023-05-24T18:38:03.435Z,11.00
2023-05-24T18:40:30.709Z,11.00
2023-05-24T18:42:57.918Z,10.90
2023-05-24T18:45:24.843Z,10.80
2023-05-24T18:47:51.800Z,10.70
2023-05-24T18:50:23.311Z,10.60
2023-05-24T18:52:50.598Z,10.50
2023-05-24T18:55:17.631Z,10.40
2023-05-24T18:57:45.058Z,10.20
2023-05-24T19:00:12.764Z,10.00
2023-05-24T19:02:40.462Z,9.80
2023-05-24T19:05:08.399Z,9.60
2023-05-24T19:07:35.628Z,9.40
2023-05-24T19:10:02.978Z,9.20
2023-05-24T19:12:30.600Z,9.10
2023-05-24T19:14:57.613Z,9.00
2023-05-24T19:17:25.146Z,9.00
2023-05-24T19:19:55.109Z,8.90
2023-05-24T19:22:22.331Z,9.00
2023-05-24T19:24:49.694Z,8.90
2023-05-24T19:27:16.534Z,8.90
2023-05-24T19:29:43.597Z,8.80
2023-05-24T19:32:11.655Z,8.70
2023-05-24T19:34:42.238Z,8.50
2023-05-24T19:37:09.779Z,8.40
2023-05-24T19:39:37.288Z,8.30
2023-05-24T19:42:04.551Z,8.30
2023-05-24T19:44:31.409Z,8.30
2023-05-24T19:46:58.364Z,8.20
2023-05-24T19:49:25.264Z,8.10
2023-05-24T19:51:52.414Z,8.00
2023-05-24T19:54:19.264Z,7.80
2023-05-24T19:56:49.965Z,7.70
2023-05-24T19:59:20.092Z,7.60
2023-05-24T20:01:46.997Z,7.60
2023-05-24T20:04:14.833Z,7.60
2023-05-24T20:06:41.672Z,7.50
2023-05-24T20:09:08.549Z,7.40
2023-05-24T20:11:35.542Z,7.40
2023-05-24T20:14:03.021Z,7.30
2023-05-24T20:16:31.021Z,7.30
2023-05-24T20:18:58.012Z,7.30
2023-05-24T20:21:24.956Z,7.30
2023-05-24T20:23:57.686Z,7.30
2023-05-24T20:26:25.959Z,7.30
2023-05-24T20:28:52.894Z,7.30
2023-05-24T20:31:19.956Z,7.30
2023-05-24T20:33:46.904Z,7.20
2023-05-24T20:36:15.188Z,7.20
2023-05-24T20:38:42.218Z,7.20
2023-05-24T20:41:09.198Z,7.10
2023-05-24T20:43:36.135Z,7.20
2023-05-24T20:46:03.107Z,7.20
2023-05-24T20:48:30.047Z,7.20
2023-05-24T20:50:57.528Z,7.20
2023-05-24T20:53:24.483Z,7.30
2023-05-24T20:55:51.502Z,7.20
2023-05-24T20:58:18.606Z,7.20
2023-05-24T21:00:46.116Z,7.20
2023-05-24T21:03:13.172Z,7.20
2023-05-24T21:05:40.571Z,7.10
2023-05-24T21:08:07.849Z,7.10
2023-05-24T21:10:35.529Z,7.20
2023-05-24T21:13:02.500Z,7.20
2023-05-24T21:15:29.350Z,7.20
2023-05-24T21:17:56.225Z,7.10
2023-05-24T21:20:23.570Z,6.90
2023-05-24T21:22:50.484Z,6.90
2023-05-24T21:25:17.680Z,6.80
2023-05-24T21:27:44.586Z,6.70
2023-05-24T21:30:12.066Z,6.70
2023-05-24T21:32:39.415Z,6.70
2023-05-24T21:35:06.899Z,6.80
2023-05-24T21:37:34.000Z,6.80
2023-05-24T21:40:01.044Z,6.80
2023-05-24T21:42:27.934Z,6.70
2023-05-24T21:44:54.824Z,6.70
2023-05-24T21:47:21.754Z,6.70
2023-05-24T21:49:51.026Z,6.80
2023-05-24T21:52:18.029Z,6.80
2023-05-24T21:54:45.497Z,6.90
2023-05-24T21:57:12.498Z,6.90
2023-05-24T21:59:39.415Z,7.00
2023-05-24T22:02:06.616Z,7.10
2023-05-24T22:04:33.568Z,7.10
2023-05-24T22:07:00.832Z,7.20
2023-05-24T22:09:27.691Z,7.20
2023-05-24T22:11:54.577Z,7.20
2023-05-24T22:14:21.942Z,7.10
2023-05-24T22:16:49.455Z,7.00
2023-05-24T22:19:25.372Z,7.00
2023-05-24T22:21:59.658Z,7.00
2023-05-24T22:24:27.462Z,6.90
2023-05-24T22:26:55.848Z,6.90
2023-05-24T22:29:22.701Z,6.80
2023-05-24T22:31:49.610Z,6.80
2023-05-24T22:34:26.426Z,6.90
2023-05-24T22:36:53.445Z,6.90
2023-05-24T22:39:20.664Z,6.90
2023-05-24T22:41:47.643Z,6.90
2023-05-24T22:44:15.027Z,6.90
2023-05-24T22:46:42.104Z,7.00
2023-05-24T22:49:13.201Z,7.00
2023-05-24T22:51:44.351Z,7.20
2023-05-24T22:54:11.822Z,7.30
2023-05-24T22:56:39.149Z,7.30
2023-05-24T22:59:07.005Z,7.40
2023-05-24T23:01:35.091Z,7.50
2023-05-24T23:04:18.821Z,7.50
2023-05-24T23:06:47.264Z,7.40
2023-05-24T23:09:14.660Z,7.30
2023-05-24T23:11:42.974Z,7.40
2023-05-24T23:14:11.351Z,7.40
2023-05-24T23:16:45.519Z,7.40
2023-05-24T23:19:18.344Z,7.50
2023-05-24T23:21:45.869Z,7.60
2023-05-24T23:24:14.496Z,7.70
2023-05-24T23:26:42.600Z,7.70
2023-05-24T23:29:09.758Z,7.70
2023-05-24T23:31:36.934Z,7.70
2023-05-24T23:34:04.540Z,7.80
2023-05-24T23:36:31.564Z,7.80
2023-05-24T23:38:58.498Z,7.80
2023-05-24T23:41:26.455Z,7.80
2023-05-24T23:43:53.480Z,7.80
2023-05-24T23:46:20.448Z,7.90
2023-05-24T23:48:47.494Z,7.90
2023-05-24T23:51:14.324Z,7.90
2023-05-24T23:53:41.176Z,7.80
2023-05-24T23:56:08.004Z,7.80
2023-05-24T23:58:36.002Z,7.70
